Time;durP1;ratioP1;P1;durP2;ratioP2;P2;SDS_P1;SDS_P2;PMS_P1;PMS_P2;Temp;Humidity;BMP_temperature;BMP_pressure;BME280_temperature;BME280_humidity;BME280_pressure;Samples;Min_cycle;Max_cycle;Signal;HPM_P1;HPM_P2
2021/07/21 00:01:41;;;;;;;16.43;11.03;;;15.00;99.90;;;;;;5089949;28;20469;-67
2021/07/21 00:04:08;;;;;;;16.07;10.80;;;14.90;99.90;;;;;;5089915;28;21019;-66
2021/07/21 00:06:35;;;;;;;13.93;10.40;;;14.80;99.90;;;;;;5089745;28;20446;-66
2021/07/21 00:09:01;;;;;;;12.83;9.77;;;14.80;99.90;;;;;;5089559;28;20458;-66
2021/07/21 00:14:18;;;;;;;11.73;9.20;;;14.70;99.90;;;;;;5045051;28;21115;-65
2021/07/21 00:16:50;;;;;;;13.13;10.10;;;14.70;99.90;;;;;;5089884;28;20512;-67
2021/07/21 00:22:02;;;;;;;12.03;9.40;;;14.70;99.90;;;;;;5089777;28;20437;-66
2021/07/21 00:24:29;;;;;;;13.10;10.23;;;14.70;99.90;;;;;;5090567;28;20846;-66
2021/07/21 00:26:57;;;;;;;14.53;9.80;;;14.50;99.90;;;;;;5093573;28;20446;-67
2021/07/21 00:29:24;;;;;;;15.13;10.43;;;14.50;99.90;;;;;;5093391;28;20450;-68
2021/07/21 00:31:51;;;;;;;14.63;10.90;;;14.40;99.90;;;;;;5093562;28;20442;-67
2021/07/21 00:34:17;;;;;;;13.07;9.87;;;14.40;99.90;;;;;;5093217;28;20993;-66
2021/07/21 00:36:44;;;;;;;14.70;12.40;;;14.30;99.90;;;;;;5093630;28;20481;-66
2021/07/21 00:39:11;;;;;;;18.23;11.30;;;14.20;99.90;;;;;;5093392;28;20450;-65
2021/07/21 00:41:38;;;;;;;13.70;10.47;;;14.20;99.90;;;;;;5093743;28;20438;-66
2021/07/21 00:44:07;;;;;;;13.07;10.63;;;14.10;99.90;;;;;;5093502;28;20830;-65
2021/07/21 00:46:35;;;;;;;13.17;10.43;;;14.10;99.90;;;;;;5093390;28;20446;-67
2021/07/21 00:49:02;;;;;;;11.67;10.43;;;14.10;99.90;;;;;;5093115;28;20503;-65
2021/07/21 00:51:28;;;;;;;14.37;10.70;;;14.10;99.90;;;;;;5093368;28;20460;-67
2021/07/21 00:53:55;;;;;;;16.50;11.77;;;14.00;99.90;;;;;;5093102;28;20560;-65
2021/07/21 00:56:22;;;;;;;14.90;11.40;;;14.00;99.90;;;;;;5093126;28;20847;-67
2021/07/21 00:58:50;;;;;;;15.20;10.60;;;14.00;99.90;;;;;;5092918;28;20498;-66
2021/07/21 01:01:18;;;;;;;17.07;13.30;;;13.90;99.90;;;;;;5092598;28;20553;-67
2021/07/21 01:03:45;;;;;;;16.20;11.73;;;13.90;99.90;;;;;;5092859;28;21006;-66
2021/07/21 01:06:12;;;;;;;15.43;10.60;;;13.90;99.90;;;;;;5092930;28;20442;-66
2021/07/21 01:08:39;;;;;;;16.70;11.60;;;13.90;99.90;;;;;;5092813;28;20937;-68
2021/07/21 01:11:13;;;;;;;17.17;12.27;;;13.80;99.90;;;;;;5092736;28;20537;-65
2021/07/21 01:13:46;;;;;;;14.43;11.07;;;13.80;99.90;;;;;;5092745;28;20466;-66
2021/07/21 01:16:20;;;;;;;15.10;12.50;;;13.80;99.90;;;;;;5093277;28;21029;-66
2021/07/21 01:18:52;;;;;;;14.70;11.93;;;13.70;99.90;;;;;;5093089;28;21079;-67
2021/07/21 01:21:41;;;;;;;14.27;11.07;;;13.60;99.90;;;;;;5092528;28;20532;-66
2021/07/21 01:24:23;;;;;;;13.80;11.30;;;13.70;99.90;;;;;;5092584;28;20502;-66
2021/07/21 01:27:21;;;;;;;17.43;11.10;;;13.70;99.90;;;;;;5092791;28;20440;-66
2021/07/21 01:29:53;;;;;;;15.77;11.90;;;13.50;99.90;;;;;;5092178;28;20450;-67
2021/07/21 01:32:24;;;;;;;16.77;11.33;;;13.50;99.90;;;;;;5092349;28;20453;-67
2021/07/21 01:34:55;;;;;;;17.63;12.70;;;13.50;99.90;;;;;;5092477;28;20497;-66
2021/07/21 01:37:23;;;;;;;14.33;11.60;;;13.40;99.90;;;;;;5091924;28;20478;-67
2021/07/21 01:39:56;;;;;;;16.73;12.80;;;13.30;99.90;;;;;;5092240;28;20474;-67
2021/07/21 01:42:26;;;;;;;14.27;11.27;;;13.30;99.90;;;;;;5092408;28;20533;-66
2021/07/21 01:44:54;;;;;;;15.43;11.60;;;13.30;99.90;;;;;;5092160;28;20467;-66
2021/07/21 01:47:23;;;;;;;16.67;11.63;;;13.30;99.90;;;;;;5092011;28;20485;-67
2021/07/21 01:49:53;;;;;;;16.20;12.60;;;13.30;99.90;;;;;;5091887;28;20442;-66
2021/07/21 01:52:24;;;;;;;17.60;11.90;;;13.30;99.90;;;;;;5091991;28;20904;-66
2021/07/21 01:54:53;;;;;;;16.43;11.40;;;13.20;99.90;;;;;;5092064;28;20466;-65
2021/07/21 01:57:21;;;;;;;17.67;12.43;;;13.20;99.90;;;;;;5092440;28;20484;-66
2021/07/21 01:59:51;;;;;;;15.60;11.10;;;13.20;99.90;;;;;;5091671;28;20450;-67
2021/07/21 02:02:22;;;;;;;15.13;11.10;;;13.20;99.90;;;;;;5091831;28;20885;-67
2021/07/21 02:04:51;;;;;;;16.27;12.67;;;13.20;99.90;;;;;;5091878;28;20478;-66
2021/07/21 02:07:19;;;;;;;15.40;12.63;;;13.10;99.90;;;;;;5091752;28;20446;-67
2021/07/21 02:09:47;;;;;;;15.50;12.40;;;13.10;99.90;;;;;;5090944;28;21178;-65
2021/07/21 02:12:15;;;;;;;14.20;11.87;;;13.20;99.90;;;;;;5091843;28;20480;-66
2021/07/21 02:14:43;;;;;;;15.87;11.83;;;13.10;99.90;;;;;;5091533;28;20466;-66
2021/07/21 02:17:12;;;;;;;17.50;12.07;;;13.10;99.90;;;;;;5091501;28;20577;-66
2021/07/21 02:19:40;;;;;;;15.60;11.57;;;13.00;99.90;;;;;;5090831;28;20457;-66
2021/07/21 02:22:07;;;;;;;19.63;12.10;;;13.10;99.90;;;;;;5091308;28;20449;-67
2021/07/21 02:24:35;;;;;;;15.80;12.87;;;13.10;99.90;;;;;;5090975;28;20466;-66
2021/07/21 02:27:02;;;;;;;16.17;11.73;;;13.00;99.90;;;;;;5091203;28;20937;-66
2021/07/21 02:29:29;;;;;;;16.60;12.00;;;13.10;99.90;;;;;;5090801;28;20548;-67
2021/07/21 02:32:03;;;;;;;17.50;12.47;;;13.10;99.90;;;;;;5091302;28;20456;-65
2021/07/21 02:34:31;;;;;;;17.90;11.60;;;13.00;99.90;;;;;;5090981;28;20568;-67
2021/07/21 02:36:59;;;;;;;17.80;12.10;;;12.90;99.90;;;;;;5091304;28;20492;-66
2021/07/21 02:39:26;;;;;;;19.97;12.37;;;12.90;99.90;;;;;;5091071;28;20442;-67
2021/07/21 02:41:53;;;;;;;17.00;13.13;;;12.90;99.90;;;;;;5091101;28;20545;-65
2021/07/21 02:44:21;;;;;;;17.97;12.30;;;12.90;99.90;;;;;;5090823;28;20462;-66
2021/07/21 02:46:48;;;;;;;18.50;13.87;;;12.80;99.90;;;;;;5091375;28;20444;-66
2021/07/21 02:49:16;;;;;;;15.60;11.63;;;12.80;99.90;;;;;;5090063;28;20446;-65
2021/07/21 02:51:50;;;;;;;17.47;12.80;;;12.80;99.90;;;;;;5090840;28;20962;-66
2021/07/21 02:54:27;;;;;;;16.70;12.73;;;12.70;99.90;;;;;;5091087;28;20471;-65
2021/07/21 02:56:59;;;;;;;18.30;13.73;;;12.80;99.90;;;;;;5091065;28;20484;-66
2021/07/21 02:59:37;;;;;;;19.10;13.73;;;12.80;99.90;;;;;;5090635;28;20445;-69
2021/07/21 03:02:04;;;;;;;16.67;12.13;;;12.80;99.90;;;;;;5090595;28;21079;-66
2021/07/21 03:04:34;;;;;;;19.60;12.33;;;12.70;99.90;;;;;;5090697;28;20474;-66
2021/07/21 03:07:04;;;;;;;15.30;12.10;;;12.70;99.90;;;;;;5090362;28;20954;-66
2021/07/21 03:09:31;;;;;;;19.87;13.73;;;12.70;99.90;;;;;;5090350;28;20450;-67
2021/07/21 03:12:02;;;;;;;18.50;14.33;;;12.70;99.90;;;;;;5090354;28;20469;-65
2021/07/21 03:14:29;;;;;;;18.00;13.40;;;12.70;99.90;;;;;;5090242;28;20484;-67
2021/07/21 03:17:01;;;;;;;18.37;13.43;;;12.80;99.90;;;;;;5090141;28;20480;-65
2021/07/21 03:19:31;;;;;;;18.37;13.67;;;12.80;99.90;;;;;;5089901;28;21024;-65
2021/07/21 03:21:59;;;;;;;19.27;13.07;;;12.80;99.90;;;;;;5090233;28;20869;-66
2021/07/21 03:24:29;;;;;;;16.17;13.23;;;12.80;99.90;;;;;;5090310;28;20560;-66
2021/07/21 03:26:57;;;;;;;20.50;12.80;;;12.80;99.90;;;;;;5090172;28;20445;-65
2021/07/21 03:29:25;;;;;;;18.77;13.60;;;12.80;99.90;;;;;;5090012;28;20452;-67
2021/07/21 03:31:53;;;;;;;19.03;12.70;;;12.70;99.90;;;;;;5089976;28;20533;-66
2021/07/21 03:34:22;;;;;;;19.77;13.80;;;12.60;99.90;;;;;;5090039;28;20466;-66
2021/07/21 03:36:54;;;;;;;19.30;13.20;;;12.60;99.90;;;;;;5090089;28;20454;-66
2021/07/21 03:39:21;;;;;;;18.73;13.67;;;12.60;99.90;;;;;;5089619;28;21119;-66
2021/07/21 03:41:51;;;;;;;16.10;12.30;;;12.60;99.90;;;;;;5090005;28;20442;-67
2021/07/21 03:44:21;;;;;;;18.10;12.93;;;12.50;99.90;;;;;;5090009;28;20553;-67
2021/07/21 03:46:48;;;;;;;19.60;12.97;;;12.60;99.90;;;;;;5089950;28;21006;-67
2021/07/21 03:49:18;;;;;;;18.53;14.53;;;12.60;99.90;;;;;;5089703;28;20449;-66
2021/07/21 03:51:46;;;;;;;18.40;13.60;;;12.60;99.90;;;;;;5090362;28;20491;-66
2021/07/21 03:54:14;;;;;;;18.57;14.53;;;12.60;99.90;;;;;;5089697;28;20460;-67
2021/07/21 03:56:44;;;;;;;21.97;14.40;;;12.60;99.90;;;;;;5089922;28;20446;-67
2021/07/21 03:59:15;;;;;;;18.67;13.30;;;12.60;99.90;;;;;;5090193;28;20438;-68
2021/07/21 04:01:44;;;;;;;19.80;13.67;;;12.60;99.90;;;;;;5093949;28;20449;-67
2021/07/21 04:04:13;;;;;;;21.57;13.70;;;12.60;99.90;;;;;;5093675;28;20812;-65
2021/07/21 04:06:41;;;;;;;18.73;14.53;;;12.60;99.90;;;;;;5093640;28;20532;-67
2021/07/21 04:09:12;;;;;;;15.50;12.13;;;12.60;99.90;;;;;;5093516;28;20437;-67
2021/07/21 04:11:40;;;;;;;20.27;13.10;;;12.60;99.90;;;;;;5093689;28;20472;-66
2021/07/21 04:14:09;;;;;;;17.33;13.83;;;12.60;99.90;;;;;;5093755;28;20465;-67
2021/07/21 04:16:38;;;;;;;19.77;15.17;;;12.60;99.90;;;;;;5093079;28;20565;-67
2021/07/21 04:19:08;;;;;;;25.53;16.20;;;12.80;99.90;;;;;;5093237;28;20504;-66
2021/07/21 04:21:37;;;;;;;17.93;13.03;;;12.80;99.90;;;;;;5093656;28;20836;-67
2021/07/21 04:24:09;;;;;;;22.17;14.10;;;12.80;99.90;;;;;;5093758;28;20585;-66
2021/07/21 04:26:36;;;;;;;22.77;14.20;;;13.00;99.90;;;;;;5093296;28;20936;-67
2021/07/21 04:29:03;;;;;;;19.50;14.10;;;13.10;99.90;;;;;;5092899;28;20865;-71
2021/07/21 04:31:32;;;;;;;19.60;13.30;;;13.10;99.90;;;;;;5092995;28;20948;-68
2021/07/21 04:34:00;;;;;;;18.93;13.33;;;13.20;99.90;;;;;;5093307;28;20482;-73
2021/07/21 04:36:28;;;;;;;18.83;14.77;;;13.40;99.90;;;;;;5093323;28;20465;-66
2021/07/21 04:38:55;;;;;;;18.67;14.20;;;13.60;99.90;;;;;;5093662;28;20485;-67
2021/07/21 04:41:24;;;;;;;18.63;13.90;;;13.70;99.90;;;;;;5092984;28;20448;-70
2021/07/21 04:43:51;;;;;;;17.77;13.20;;;13.70;99.90;;;;;;5093352;28;20466;-68
2021/07/21 04:46:19;;;;;;;19.67;15.00;;;13.80;99.90;;;;;;5093413;28;20452;-65
2021/07/21 04:48:47;;;;;;;17.83;12.47;;;13.80;99.90;;;;;;5093314;28;20512;-65
2021/07/21 04:51:18;;;;;;;14.83;13.23;;;13.90;99.90;;;;;;5093052;28;20446;-65
2021/07/21 04:53:45;;;;;;;13.97;11.73;;;13.90;99.90;;;;;;5092857;28;20833;-66
2021/07/21 04:56:12;;;;;;;21.37;14.20;;;14.00;99.90;;;;;;5093013;28;20461;-66
2021/07/21 04:58:39;;;;;;;19.23;12.90;;;13.90;99.90;;;;;;5092737;28;20481;-65
2021/07/21 05:01:06;;;;;;;18.17;13.20;;;13.90;99.90;;;;;;5092826;28;20447;-65
2021/07/21 05:03:33;;;;;;;18.83;13.47;;;14.00;99.90;;;;;;5089050;28;20911;-65
2021/07/21 05:06:00;;;;;;;18.73;13.60;;;14.00;99.90;;;;;;5091687;28;20434;-67
2021/07/21 05:08:28;;;;;;;15.40;13.63;;;14.10;99.90;;;;;;5086223;28;20439;-66
2021/07/21 05:10:55;;;;;;;16.10;13.70;;;14.00;99.90;;;;;;5086985;28;20434;-67
2021/07/21 05:13:22;;;;;;;17.17;14.00;;;14.10;99.90;;;;;;5089407;28;20911;-68
2021/07/21 05:15:49;;;;;;;19.80;13.10;;;14.10;99.90;;;;;;5089501;28;20442;-66
2021/07/21 05:18:16;;;;;;;15.33;12.03;;;14.10;99.90;;;;;;5090673;28;20488;-67
2021/07/21 05:20:44;;;;;;;19.57;13.20;;;14.20;99.90;;;;;;5091461;28;20477;-65
2021/07/21 05:23:11;;;;;;;18.17;13.73;;;14.20;99.90;;;;;;5084406;28;20454;-66
2021/07/21 05:25:41;;;;;;;22.00;13.97;;;14.20;99.90;;;;;;5071851;28;20512;-65
2021/07/21 05:28:08;;;;;;;16.00;12.53;;;14.20;99.90;;;;;;5071275;28;20436;-65
2021/07/21 05:30:36;;;;;;;14.20;11.90;;;14.40;99.90;;;;;;5070732;28;20553;-67
2021/07/21 05:33:03;;;;;;;17.10;11.97;;;14.30;99.90;;;;;;5071826;28;20960;-66
2021/07/21 05:35:30;;;;;;;14.83;12.20;;;14.50;99.90;;;;;;5071770;28;20533;-64
2021/07/21 05:37:57;;;;;;;16.50;12.00;;;14.50;99.90;;;;;;5071684;28;21016;-66
2021/07/21 05:40:24;;;;;;;15.60;12.80;;;14.60;99.90;;;;;;5071482;28;20546;-65
2021/07/21 05:42:53;;;;;;;17.73;13.07;;;14.70;99.90;;;;;;5071865;28;20451;-65
2021/07/21 05:45:19;;;;;;;19.90;14.30;;;14.70;99.90;;;;;;5071556;28;20503;-65
2021/07/21 05:47:46;;;;;;;20.50;13.33;;;14.80;99.90;;;;;;5072069;28;20465;-64
2021/07/21 05:50:13;;;;;;;15.90;12.20;;;14.90;99.90;;;;;;5071655;28;20554;-64
2021/07/21 05:52:40;;;;;;;16.53;12.97;;;15.00;99.90;;;;;;5071832;28;21000;-65
2021/07/21 05:55:08;;;;;;;18.33;14.00;;;15.10;99.90;;;;;;5071869;28;20536;-66
2021/07/21 05:57:34;;;;;;;14.63;12.00;;;15.10;99.90;;;;;;5071742;28;20819;-65
2021/07/21 06:00:04;;;;;;;15.93;12.23;;;15.30;99.90;;;;;;5076742;28;21039;-65
2021/07/21 06:02:31;;;;;;;16.20;12.53;;;15.50;99.90;;;;;;5082416;28;20450;-65
2021/07/21 06:04:58;;;;;;;20.77;12.20;;;15.50;99.90;;;;;;5090451;28;20454;-65
2021/07/21 06:07:25;;;;;;;17.30;12.07;;;15.50;99.90;;;;;;5091850;28;20525;-64
2021/07/21 06:09:52;;;;;;;20.07;12.70;;;15.60;99.90;;;;;;5091503;28;20460;-64
2021/07/21 06:12:19;;;;;;;16.63;12.33;;;15.70;99.90;;;;;;5090697;28;20446;-65
2021/07/21 06:14:46;;;;;;;15.80;11.67;;;15.80;99.90;;;;;;5091005;28;21002;-65
2021/07/21 06:17:14;;;;;;;20.00;11.40;;;15.90;99.90;;;;;;5090283;28;20508;-65
2021/07/21 06:19:41;;;;;;;13.63;12.17;;;16.00;99.90;;;;;;5089762;28;20478;-65
2021/07/21 06:22:08;;;;;;;16.40;12.27;;;16.10;99.90;;;;;;5090145;28;20474;-66
2021/07/21 06:24:35;;;;;;;19.97;11.50;;;16.10;99.90;;;;;;5090803;28;20461;-65
2021/07/21 06:27:04;;;;;;;17.07;13.43;;;16.20;99.90;;;;;;5091144;28;20466;-67
2021/07/21 06:29:31;;;;;;;14.87;11.83;;;16.40;99.90;;;;;;5090765;28;20445;-65
2021/07/21 06:31:58;;;;;;;13.80;11.50;;;16.50;99.90;;;;;;5090860;28;20460;-67
2021/07/21 06:34:27;;;;;;;14.03;10.73;;;16.50;99.90;;;;;;5091020;28;20466;-66
2021/07/21 06:36:53;;;;;;;16.57;12.30;;;16.70;99.90;;;;;;5090845;28;20446;-66
2021/07/21 06:39:21;;;;;;;14.67;11.47;;;16.70;99.90;;;;;;5090487;28;20481;-67
2021/07/21 06:41:47;;;;;;;14.27;11.97;;;16.80;99.90;;;;;;5090771;28;20442;-66
2021/07/21 06:44:14;;;;;;;13.97;11.57;;;16.90;99.90;;;;;;5090539;28;21048;-67
2021/07/21 06:46:42;;;;;;;14.33;11.10;;;17.00;99.90;;;;;;5090630;28;20442;-66
2021/07/21 06:49:09;;;;;;;15.00;12.07;;;17.10;99.90;;;;;;5090426;28;20439;-67
2021/07/21 06:51:37;;;;;;;15.57;11.63;;;17.20;99.90;;;;;;5090948;28;20537;-66
2021/07/21 06:54:04;;;;;;;15.60;11.70;;;17.30;99.90;;;;;;5090751;28;20552;-66
2021/07/21 06:56:31;;;;;;;17.13;11.60;;;17.40;99.90;;;;;;5090692;28;20443;-67
2021/07/21 06:58:58;;;;;;;11.57;10.37;;;17.40;99.90;;;;;;5090228;28;20486;-66
2021/07/21 07:01:26;;;;;;;14.20;12.20;;;17.60;99.90;;;;;;5090481;28;20533;-66
2021/07/21 07:03:53;;;;;;;13.80;11.40;;;17.70;99.90;;;;;;5090600;28;20504;-64
2021/07/21 07:06:20;;;;;;;17.93;11.90;;;17.70;99.90;;;;;;5090365;28;20453;-63
2021/07/21 07:08:48;;;;;;;12.90;11.50;;;17.80;99.90;;;;;;5090336;28;20549;-65
2021/07/21 07:11:15;;;;;;;13.47;10.37;;;17.90;99.90;;;;;;5090028;28;20449;-66
2021/07/21 07:13:42;;;;;;;17.33;11.10;;;18.10;99.90;;;;;;5089969;28;20470;-63
2021/07/21 07:16:09;;;;;;;15.00;11.30;;;18.20;99.90;;;;;;5090214;28;20454;-66
2021/07/21 07:18:37;;;;;;;13.40;10.83;;;18.30;99.90;;;;;;5090389;28;20478;-64
2021/07/21 07:21:04;;;;;;;11.80;10.37;;;18.50;99.90;;;;;;5090181;28;20827;-65
2021/07/21 07:23:31;;;;;;;14.80;10.13;;;18.50;99.90;;;;;;5090156;28;20464;-64
2021/07/21 07:25:59;;;;;;;12.27;10.13;;;18.70;99.90;;;;;;5090101;28;20446;-65
2021/07/21 07:28:26;;;;;;;12.43;10.07;;;18.80;99.90;;;;;;5090294;28;20536;-68
2021/07/21 07:30:53;;;;;;;12.33;11.03;;;18.90;99.90;;;;;;5090025;28;20446;-64
2021/07/21 07:33:20;;;;;;;11.40;9.93;;;19.10;99.90;;;;;;5090252;28;20976;-65
2021/07/21 07:35:46;;;;;;;14.40;11.37;;;19.10;99.90;;;;;;5089624;28;20525;-64
2021/07/21 07:38:14;;;;;;;13.43;9.93;;;19.20;99.90;;;;;;5090077;28;20442;-66
2021/07/21 07:40:42;;;;;;;12.00;9.63;;;19.40;99.90;;;;;;5089656;28;20496;-67
2021/07/21 07:43:10;;;;;;;18.20;10.60;;;19.30;99.90;;;;;;5090182;28;20474;-67
2021/07/21 07:45:37;;;;;;;12.10;10.40;;;19.30;99.90;;;;;;5090110;28;20970;-66
2021/07/21 07:48:05;;;;;;;14.33;10.63;;;19.40;99.90;;;;;;5090246;28;20456;-66
2021/07/21 07:50:32;;;;;;;15.20;11.37;;;19.50;99.90;;;;;;5089862;28;20520;-66
2021/07/21 07:52:59;;;;;;;14.43;11.03;;;19.60;99.90;;;;;;5089975;28;20940;-66
2021/07/21 07:55:26;;;;;;;17.33;11.33;;;19.70;99.90;;;;;;5091170;28;20471;-66
2021/07/21 07:57:52;;;;;;;14.00;10.83;;;19.90;99.90;;;;;;5090781;28;20450;-67
2021/07/21 08:00:22;;;;;;;12.30;10.50;;;19.80;99.90;;;;;;5089664;28;20497;-66
2021/07/21 08:02:48;;;;;;;12.10;10.50;;;19.80;99.90;;;;;;5089668;28;20974;-67
2021/07/21 08:05:15;;;;;;;12.30;10.80;;;20.00;99.90;;;;;;5090177;28;20472;-67
2021/07/21 08:07:42;;;;;;;11.30;9.90;;;20.10;99.90;;;;;;5089466;28;20549;-66
2021/07/21 08:10:13;;;;;;;12.60;11.10;;;20.30;99.90;;;;;;5089313;28;20537;-66
2021/07/21 08:12:41;;;;;;;13.40;10.80;;;20.40;99.90;;;;;;5089934;28;20508;-66
2021/07/21 08:15:09;;;;;;;12.50;10.63;;;20.50;99.90;;;;;;5089585;28;20477;-66
2021/07/21 08:17:38;;;;;;;14.30;10.40;;;20.70;99.90;;;;;;5089566;28;20445;-66
2021/07/21 08:20:07;;;;;;;11.40;10.20;;;20.80;99.90;;;;;;5089286;28;20482;-68
2021/07/21 08:22:39;;;;;;;12.00;10.53;;;20.80;99.90;;;;;;5089729;28;20820;-67
2021/07/21 08:25:08;;;;;;;11.50;10.27;;;20.90;99.90;;;;;;5089686;28;20462;-66
2021/07/21 08:27:36;;;;;;;12.57;11.30;;;21.00;99.90;;;;;;5089742;28;20533;-67
2021/07/21 08:30:04;;;;;;;12.90;10.80;;;21.20;99.90;;;;;;5089461;28;20438;-66
2021/07/21 08:32:31;;;;;;;14.43;10.17;;;21.20;99.90;;;;;;5089692;28;20446;-65
2021/07/21 08:34:59;;;;;;;13.70;10.33;;;21.30;99.90;;;;;;5089411;28;21031;-66
2021/07/21 08:37:26;;;;;;;11.60;10.17;;;21.40;99.90;;;;;;5089965;28;20458;-66
2021/07/21 08:39:52;;;;;;;13.37;9.77;;;21.60;99.90;;;;;;5089461;28;20509;-66
2021/07/21 08:42:20;;;;;;;14.50;10.30;;;21.70;99.90;;;;;;5089591;28;20940;-68
2021/07/21 08:44:47;;;;;;;12.67;9.73;;;21.70;99.90;;;;;;5089650;28;20468;-66
2021/07/21 08:47:14;;;;;;;10.43;9.30;;;21.80;99.90;;;;;;5093261;28;21287;-67
2021/07/21 08:49:41;;;;;;;12.10;9.70;;;21.90;99.90;;;;;;5092911;28;20450;-66
2021/07/21 08:52:09;;;;;;;12.80;9.67;;;22.00;99.90;;;;;;5093403;28;20442;-66
2021/07/21 08:54:38;;;;;;;12.63;10.50;;;22.00;99.90;;;;;;5092988;28;20502;-63
2021/07/21 08:57:05;;;;;;;9.97;9.00;;;22.20;99.90;;;;;;5093142;28;20453;-65
2021/07/21 08:59:33;;;;;;;10.83;9.83;;;22.20;99.90;;;;;;5092632;28;20474;-65
2021/07/21 09:02:00;;;;;;;12.50;10.20;;;22.40;99.90;;;;;;5092800;28;20553;-64
2021/07/21 09:04:27;;;;;;;10.43;9.43;;;22.50;99.90;;;;;;5092879;28;20462;-65
2021/07/21 09:06:53;;;;;;;12.30;9.40;;;22.60;99.90;;;;;;5092916;28;20525;-63
2021/07/21 09:09:22;;;;;;;11.63;9.73;;;22.80;99.90;;;;;;5092401;28;20936;-65
2021/07/21 09:11:49;;;;;;;11.50;9.93;;;22.90;99.90;;;;;;5092549;28;21271;-64
2021/07/21 09:14:16;;;;;;;13.57;9.60;;;23.10;99.90;;;;;;5092584;28;21119;-63
2021/07/21 09:16:43;;;;;;;11.33;9.60;;;23.20;99.90;;;;;;5092773;28;20450;-65
2021/07/21 09:19:11;;;;;;;10.90;9.10;;;23.20;99.90;;;;;;5092170;28;20481;-64
2021/07/21 09:21:42;;;;;;;14.80;9.43;;;22.90;99.90;;;;;;5092730;28;20442;-65
2021/07/21 09:24:20;;;;;;;10.40;9.30;;;22.90;99.90;;;;;;5092447;28;21068;-64
2021/07/21 09:26:48;;;;;;;10.90;9.50;;;23.10;99.90;;;;;;5092323;28;20469;-62
2021/07/21 09:29:16;;;;;;;10.13;9.13;;;23.30;99.90;;;;;;5092157;28;20453;-64
2021/07/21 09:31:44;;;;;;;9.70;8.70;;;23.40;99.90;;;;;;5092240;28;20499;-64
2021/07/21 09:34:15;;;;;;;11.30;9.20;;;23.70;99.90;;;;;;5091992;28;21048;-64
2021/07/21 09:36:42;;;;;;;13.50;9.10;;;23.90;99.90;;;;;;5092032;28;20932;-64
2021/07/21 09:39:11;;;;;;;10.57;9.30;;;24.00;99.90;;;;;;5091617;28;20488;-66
2021/07/21 09:41:38;;;;;;;12.80;9.73;;;24.00;99.90;;;;;;5092173;28;20499;-64
2021/07/21 09:44:07;;;;;;;9.10;8.20;;;24.00;99.90;;;;;;5093288;28;20472;-67
2021/07/21 09:46:34;;;;;;;10.60;8.80;;;24.00;99.90;;;;;;5092032;28;20537;-67
2021/07/21 09:49:01;;;;;;;10.53;9.40;;;24.20;99.90;;;;;;5091969;28;20499;-65
2021/07/21 09:51:31;;;;;;;9.60;8.60;;;24.40;99.90;;;;;;5092129;28;20451;-64
2021/07/21 09:54:12;;;;;;;9.90;8.90;;;24.50;99.90;;;;;;5091479;28;21041;-65
2021/07/21 09:56:39;;;;;;;8.83;8.03;;;24.60;99.90;;;;;;5091470;28;20549;-66
2021/07/21 09:59:21;;;;;;;9.47;8.50;;;24.90;99.90;;;;;;5091193;28;20482;-64
2021/07/21 10:01:49;;;;;;;11.63;9.10;;;25.50;99.90;;;;;;5091699;28;20452;-64
2021/07/21 10:04:32;;;;;;;11.67;8.90;;;26.00;99.60;;;;;;5091505;28;20458;-65
2021/07/21 10:07:00;;;;;;;10.57;9.03;;;26.50;99.80;;;;;;5091656;28;20446;-65
2021/07/21 10:09:27;;;;;;;11.20;8.60;;;26.90;97.10;;;;;;5091222;28;20449;-65
2021/07/21 10:11:56;;;;;;;9.70;8.80;;;27.20;97.20;;;;;;5091419;28;20469;-65
2021/07/21 10:14:24;;;;;;;9.27;8.37;;;27.70;94.60;;;;;;5090810;28;20478;-66
2021/07/21 10:16:52;;;;;;;9.00;8.10;;;27.90;94.30;;;;;;5091242;28;21026;-64
2021/07/21 10:19:22;;;;;;;10.67;8.40;;;28.00;94.90;;;;;;5090808;28;20496;-65
2021/07/21 10:21:53;;;;;;;10.80;8.10;;;28.40;94.70;;;;;;5091359;28;20817;-65
2021/07/21 10:24:21;;;;;;;9.53;8.53;;;28.80;94.40;;;;;;5091235;28;20556;-65
2021/07/21 10:26:49;;;;;;;8.97;7.80;;;29.30;92.60;;;;;;5091146;28;20533;-66
2021/07/21 10:29:17;;;;;;;8.33;7.53;;;29.40;94.20;;;;;;5090842;28;20478;-66
2021/07/21 10:31:46;;;;;;;9.27;8.37;;;29.70;93.20;;;;;;5092048;28;20456;-66
2021/07/21 10:34:16;;;;;;;8.50;7.70;;;29.80;92.60;;;;;;5091757;28;21005;-66
2021/07/21 10:36:43;;;;;;;8.87;7.97;;;30.40;90.50;;;;;;5091520;28;20478;-67
2021/07/21 10:39:12;;;;;;;7.83;7.10;;;30.70;91.70;;;;;;5090780;28;20454;-65
2021/07/21 10:41:40;;;;;;;9.73;8.00;;;31.10;87.90;;;;;;5091023;28;20456;-67
2021/07/21 10:44:09;;;;;;;8.20;7.40;;;31.00;84.70;;;;;;5091076;28;20462;-68
2021/07/21 10:46:41;;;;;;;8.83;8.03;;;31.10;83.70;;;;;;5090984;28;20454;-65
2021/07/21 10:49:23;;;;;;;8.70;7.30;;;31.20;83.50;;;;;;5090412;28;20453;-66
2021/07/21 10:52:36;;;;;;;8.83;8.13;;;30.30;82.90;;;;;;5090553;28;20476;-64
2021/07/21 10:55:16;;;;;;;8.07;7.27;;;29.90;87.50;;;;;;5090551;28;20497;-67
2021/07/21 11:00:30;;;;;;;8.70;7.80;;;30.10;84.00;;;;;;5090179;28;20473;-65
2021/07/21 11:03:17;;;;;;;10.37;7.80;;;30.60;87.80;;;;;;5090619;28;20525;-66
2021/07/21 11:05:50;;;;;;;9.87;8.87;;;30.80;87.10;;;;;;5090459;28;20444;-66
2021/07/21 11:08:18;;;;;;;9.43;8.53;;;30.80;82.00;;;;;;5090265;28;20525;-64
2021/07/21 11:10:47;;;;;;;10.00;8.53;;;30.20;82.30;;;;;;5089524;28;20966;-65
2021/07/21 11:13:35;;;;;;;8.83;7.93;;;30.50;88.50;;;;;;5090410;28;20446;-67
2021/07/21 11:16:03;;;;;;;10.03;9.03;;;30.40;83.80;;;;;;5090165;28;20482;-67
2021/07/21 11:18:50;;;;;;;10.93;7.83;;;30.20;85.00;;;;;;5089987;28;20494;-66
2021/07/21 11:21:21;;;;;;;10.50;8.67;;;30.50;88.80;;;;;;5089870;28;20482;-65
2021/07/21 11:23:59;;;;;;;9.03;8.13;;;30.90;81.90;;;;;;5090033;28;20462;-66
2021/07/21 11:26:45;;;;;;;9.87;8.50;;;31.60;85.50;;;;;;5090303;28;20495;-66
2021/07/21 11:29:47;;;;;;;9.73;8.87;;;32.30;78.70;;;;;;5089790;28;20825;-65
2021/07/21 11:32:29;;;;;;;9.53;8.63;;;31.90;80.20;;;;;;5089963;28;20445;-66
2021/07/21 11:34:58;;;;;;;10.07;9.07;;;31.20;81.60;;;;;;5089877;28;20517;-64
2021/07/21 11:37:33;;;;;;;9.77;8.87;;;30.60;80.90;;;;;;5090002;28;20851;-65
2021/07/21 11:40:13;;;;;;;11.43;9.30;;;29.50;83.40;;;;;;5089636;28;20546;-65
2021/07/21 11:42:40;;;;;;;12.37;11.10;;;29.20;88.00;;;;;;5090057;28;20899;-65
2021/07/21 11:45:11;;;;;;;9.43;8.53;;;29.40;88.50;;;;;;5089747;28;20502;-67
2021/07/21 11:47:40;;;;;;;9.33;8.33;;;29.70;88.40;;;;;;5077555;28;20447;-64
2021/07/21 11:50:10;;;;;;;10.13;9.17;;;30.70;87.10;;;;;;5079171;28;20438;-65
2021/07/21 11:52:39;;;;;;;11.20;9.43;;;30.70;83.40;;;;;;5088022;28;20438;-65
2021/07/21 11:55:07;;;;;;;11.20;9.57;;;30.30;82.20;;;;;;5088526;28;20468;-66
2021/07/21 11:57:34;;;;;;;11.30;10.20;;;30.50;85.60;;;;;;5085894;28;20820;-64
2021/07/21 12:00:01;;;;;;;10.10;9.20;;;30.20;84.20;;;;;;5085793;28;20480;-65
2021/07/21 12:02:30;;;;;;;10.70;9.10;;;31.10;87.40;;;;;;5088693;28;20532;-64
2021/07/21 12:04:58;;;;;;;10.33;9.30;;;31.50;80.30;;;;;;5086685;28;20964;-65
2021/07/21 12:07:32;;;;;;;10.50;9.30;;;32.10;82.70;;;;;;5087766;28;20476;-66
2021/07/21 12:10:10;;;;;;;10.43;9.43;;;31.90;80.30;;;;;;5087151;28;20542;-66
2021/07/21 12:12:37;;;;;;;11.50;10.40;;;31.60;77.60;;;;;;5087414;28;20461;-65
2021/07/21 12:15:06;;;;;;;10.20;9.20;;;30.80;78.20;;;;;;5087319;28;20466;-65
2021/07/21 12:17:33;;;;;;;11.43;10.27;;;29.50;81.90;;;;;;5087467;28;21094;-66
2021/07/21 12:20:01;;;;;;;11.10;9.90;;;27.90;85.90;;;;;;5087794;28;20485;-64
2021/07/21 12:22:31;;;;;;;10.70;9.00;;;27.40;91.30;;;;;;5091755;28;21152;-65
2021/07/21 12:25:00;;;;;;;10.37;8.93;;;28.70;94.00;;;;;;5091393;28;21275;-68
2021/07/21 12:27:33;;;;;;;12.80;9.00;;;29.90;85.30;;;;;;5091502;28;20446;-65
2021/07/21 12:30:00;;;;;;;9.50;8.60;;;30.50;85.60;;;;;;5092792;28;21134;-67
2021/07/21 12:32:27;;;;;;;11.80;10.23;;;29.20;86.00;;;;;;5091460;28;20545;-65
2021/07/21 12:34:56;;;;;;;13.40;9.33;;;28.10;89.80;;;;;;5091393;28;20564;-65
2021/07/21 12:37:24;;;;;;;14.20;9.17;;;27.40;91.50;;;;;;5091325;28;20533;-66
2021/07/21 12:39:54;;;;;;;12.00;10.10;;;27.50;91.40;;;;;;5091016;28;20642;-65
2021/07/21 12:42:22;;;;;;;10.33;9.33;;;28.50;89.70;;;;;;5091097;28;20446;-66
2021/07/21 12:44:53;;;;;;;10.57;9.57;;;29.70;85.20;;;;;;5091426;28;20502;-65
2021/07/21 12:47:22;;;;;;;12.57;9.47;;;30.50;84.40;;;;;;5083664;28;20901;-65
2021/07/21 12:49:53;;;;;;;10.57;9.57;;;30.40;82.90;;;;;;5088698;28;20813;-66